createdAt,value
2019-04-22T00:00:57.280Z,25.37
2019-04-22T00:03:36.014Z,24.97
2019-04-22T00:06:21.090Z,28.70
2019-04-22T00:08:55.537Z,28.50
2019-04-22T00:11:30.327Z,26.97
2019-04-22T00:16:43.280Z,31.53
2019-04-22T00:19:20.672Z,28.53
2019-04-22T00:21:38.484Z,33.93
2019-04-22T00:24:12.078Z,26.77
2019-04-22T00:26:45.870Z,35.67
2019-04-22T00:29:39.205Z,28.60
2019-04-22T00:32:04.972Z,28.83
2019-04-22T00:34:43.766Z,34.33
2019-04-22T00:37:17.514Z,33.90
2019-04-22T00:39:52.068Z,36.70
2019-04-22T00:42:21.413Z,34.73
2019-04-22T00:45:00.714Z,28.83
2019-04-22T00:47:27.860Z,37.63
2019-04-22T00:52:28.292Z,34.07
2019-04-22T00:55:06.163Z,32.80
2019-04-22T00:57:32.448Z,34.70
2019-04-22T01:00:06.745Z,30.47
2019-04-22T01:02:41.832Z,34.70
2019-04-22T01:05:15.386Z,30.50
2019-04-22T01:07:40.774Z,28.43
2019-04-22T01:10:18.818Z,30.73
2019-04-22T01:12:48.101Z,31.93
2019-04-22T01:15:23.334Z,35.80
2019-04-22T01:17:51.089Z,31.83
2019-04-22T01:20:45.256Z,34.77
2019-04-22T01:22:52.177Z,41.80
2019-04-22T01:25:20.467Z,40.47
2019-04-22T01:27:50.275Z,34.87
2019-04-22T01:30:17.402Z,36.27
2019-04-22T01:32:44.859Z,42.07
2019-04-22T01:35:26.350Z,31.83
2019-04-22T01:37:59.983Z,35.40
2019-04-22T01:40:45.225Z,36.73
2019-04-22T01:43:16.809Z,37.20
2019-04-22T01:45:48.012Z,39.33
2019-04-22T01:48:17.740Z,33.53
2019-04-22T01:50:49.689Z,34.90
2019-04-22T01:53:24.488Z,34.90
2019-04-22T01:55:52.026Z,34.80
2019-04-22T01:58:21.603Z,35.73
2019-04-22T02:01:14.740Z,31.93
2019-04-22T02:03:33.253Z,32.93
2019-04-22T02:05:58.831Z,32.80
2019-04-22T02:08:42.694Z,29.10
2019-04-22T02:11:08.320Z,30.97
2019-04-22T02:13:49.373Z,29.67
2019-04-22T02:16:30.796Z,31.63
2019-04-22T02:18:50.722Z,29.67
2019-04-22T02:21:16.974Z,27.83
2019-04-22T02:26:25.575Z,28.53
2019-04-22T02:28:47.675Z,25.47
2019-04-22T02:31:36.042Z,29.60
2019-04-22T02:39:10.131Z,32.00
2019-04-22T02:47:08.450Z,30.40
2019-04-22T02:49:18.893Z,25.93
2019-04-22T02:51:35.251Z,30.90
2019-04-22T02:59:14.922Z,25.77
2019-04-22T03:04:18.367Z,28.93
2019-04-22T03:09:25.748Z,26.60
2019-04-22T03:12:12.302Z,31.10
2019-04-22T03:14:29.990Z,31.00
2019-04-22T03:16:57.270Z,27.60
2019-04-22T03:19:46.834Z,27.03
2019-04-22T03:22:08.256Z,28.02
2019-04-22T03:24:38.172Z,26.87
2019-04-22T03:27:08.031Z,27.35
2019-04-22T03:33:05.875Z,23.50
2019-04-22T03:40:34.619Z,28.73
2019-04-22T03:42:52.239Z,27.47
2019-04-22T03:47:57.432Z,27.43
2019-04-22T03:50:25.901Z,28.77
2019-04-22T03:53:05.133Z,28.23
2019-04-22T03:55:31.035Z,24.03
2019-04-22T03:58:06.951Z,27.00
2019-04-22T04:03:09.629Z,23.27
2019-04-22T04:05:50.364Z,26.53
2019-04-22T04:08:14.791Z,24.37
2019-04-22T04:10:40.057Z,27.80
2019-04-22T04:15:55.870Z,22.70
2019-04-22T04:18:44.554Z,24.30
2019-04-22T04:21:01.335Z,23.97
2019-04-22T04:28:51.044Z,21.00
2019-04-22T04:31:05.854Z,21.67
2019-04-22T04:33:28.943Z,20.53
2019-04-22T04:36:03.584Z,21.07
2019-04-22T04:38:42.899Z,21.13
2019-04-22T04:41:22.516Z,21.13
2019-04-22T04:46:16.069Z,19.57
2019-04-22T04:48:53.748Z,25.20
2019-04-22T04:53:49.126Z,19.20
2019-04-22T04:56:20.485Z,20.43
2019-04-22T05:09:11.369Z,19.70
2019-04-22T05:11:43.174Z,22.00
2019-04-22T05:21:38.551Z,21.00
2019-04-22T05:24:13.632Z,22.73
2019-04-22T05:26:41.488Z,23.13
2019-04-22T05:29:15.071Z,21.40
2019-04-22T05:31:43.539Z,20.50
2019-04-22T05:34:21.508Z,20.43
2019-04-22T05:36:40.256Z,19.10
2019-04-22T05:39:11.224Z,17.30
2019-04-22T05:41:52.210Z,20.03
2019-04-22T05:44:23.047Z,18.80
2019-04-22T05:46:47.561Z,22.43
2019-04-22T05:49:23.795Z,17.77
2019-04-22T05:52:12.233Z,16.47
2019-04-22T05:54:30.396Z,20.50
2019-04-22T05:56:51.458Z,17.90
2019-04-22T05:59:34.433Z,18.13
2019-04-22T06:02:05.187Z,15.17
2019-04-22T06:04:29.360Z,18.13
2019-04-22T06:07:09.709Z,17.03
2019-04-22T06:09:32.288Z,15.90
2019-04-22T06:12:04.950Z,17.23
2019-04-22T06:14:47.920Z,13.77
2019-04-22T06:17:24.785Z,15.77
2019-04-22T06:19:58.664Z,14.57
2019-04-22T06:22:37.145Z,11.83
2019-04-22T06:25:00.999Z,14.63
2019-04-22T06:27:39.024Z,15.00
2019-04-22T06:30:04.980Z,12.77
2019-04-22T06:32:32.545Z,12.27
2019-04-22T06:35:16.648Z,11.60
2019-04-22T06:37:46.436Z,14.40
2019-04-22T06:40:16.516Z,14.53
2019-04-22T06:42:45.475Z,10.97
2019-04-22T06:45:19.012Z,11.33
2019-04-22T06:50:26.149Z,13.67
2019-04-22T06:52:52.528Z,12.33
2019-04-22T06:55:21.203Z,13.60
2019-04-22T06:57:53.279Z,11.43
2019-04-22T07:03:26.943Z,20.03
2019-04-22T07:05:27.899Z,11.57
2019-04-22T07:08:27.231Z,12.83
2019-04-22T07:13:11.613Z,10.33
2019-04-22T07:20:44.188Z,11.47
2019-04-22T07:23:22.588Z,11.80
2019-04-22T07:25:48.011Z,12.53
2019-04-22T07:28:17.690Z,9.10
2019-04-22T07:30:54.105Z,9.63
2019-04-22T07:33:27.805Z,9.57
2019-04-22T07:36:14.662Z,10.73
2019-04-22T07:40:56.310Z,11.63
2019-04-22T07:43:40.867Z,9.73
2019-04-22T07:46:03.517Z,8.97
2019-04-22T07:48:38.335Z,9.50
2019-04-22T07:51:07.508Z,8.57
2019-04-22T07:53:33.967Z,7.17
2019-04-22T07:56:11.844Z,8.97
2019-04-22T07:58:42.197Z,10.23
2019-04-22T08:01:18.521Z,8.80
2019-04-22T08:04:01.869Z,7.10
2019-04-22T08:06:17.282Z,9.50
2019-04-22T08:08:58.487Z,9.23
2019-04-22T08:11:37.615Z,9.00
2019-04-22T08:13:53.286Z,8.57
2019-04-22T08:16:26.385Z,10.17
2019-04-22T08:19:04.120Z,9.57
2019-04-22T08:21:31.938Z,6.97
2019-04-22T08:24:01.508Z,7.58
2019-04-22T08:26:31.992Z,7.30
2019-04-22T08:29:13.093Z,8.07
2019-04-22T08:31:41.343Z,6.75
2019-04-22T08:34:16.669Z,8.07
2019-04-22T08:36:54.056Z,11.08
2019-04-22T08:39:16.750Z,6.80
2019-04-22T08:41:39.966Z,8.80
2019-04-22T08:44:17.489Z,7.85
2019-04-22T08:46:57.503Z,6.73
2019-04-22T08:49:21.792Z,10.23
2019-04-22T08:51:56.552Z,8.97
2019-04-22T08:54:30.874Z,8.03
2019-04-22T08:57:03.422Z,7.95
2019-04-22T08:59:28.146Z,7.20
2019-04-22T09:02:06.338Z,6.72
2019-04-22T09:04:34.606Z,5.83
2019-04-22T09:07:21.231Z,6.47
2019-04-22T09:12:15.844Z,8.03
2019-04-22T09:14:47.241Z,7.17
2019-04-22T09:17:20.101Z,8.73
2019-04-22T09:19:52.688Z,7.25
2019-04-22T09:22:21.870Z,6.45
2019-04-22T09:24:51.779Z,7.20
2019-04-22T09:27:34.895Z,9.30
2019-04-22T09:30:01.036Z,7.60
2019-04-22T09:32:39.514Z,7.00
2019-04-22T09:35:04.775Z,7.47
2019-04-22T09:37:47.268Z,7.83
2019-04-22T09:40:17.157Z,7.37
2019-04-22T09:42:43.735Z,5.97
2019-04-22T09:45:12.986Z,7.72
2019-04-22T09:47:53.866Z,8.78
2019-04-22T09:50:22.355Z,8.00
2019-04-22T09:57:53.066Z,6.75
2019-04-22T10:00:25.415Z,9.03
2019-04-22T10:03:00.914Z,5.30
2019-04-22T10:08:14.467Z,7.12
2019-04-22T10:10:35.282Z,8.15
2019-04-22T10:13:12.902Z,5.83
2019-04-22T10:15:43.969Z,4.95
2019-04-22T10:18:16.307Z,6.25
2019-04-22T10:20:51.881Z,5.83
2019-04-22T10:23:19.052Z,5.55
2019-04-22T10:25:53.713Z,6.17
2019-04-22T10:28:23.616Z,5.53
2019-04-22T10:33:21.983Z,7.42
2019-04-22T10:35:32.925Z,6.75
2019-04-22T10:38:04.103Z,6.42
2019-04-22T10:40:36.447Z,5.87
2019-04-22T10:43:09.582Z,6.50
2019-04-22T10:45:41.814Z,7.58
2019-04-22T10:48:12.580Z,6.00
2019-04-22T10:50:46.832Z,6.20
2019-04-22T10:53:19.785Z,6.90
2019-04-22T10:55:51.628Z,7.17
2019-04-22T10:58:22.836Z,7.00
2019-04-22T11:00:54.310Z,5.53
2019-04-22T11:03:27.931Z,6.45
2019-04-22T11:05:57.170Z,6.58
2019-04-22T11:08:35.001Z,7.22
2019-04-22T11:11:13.562Z,6.50
2019-04-22T11:13:31.744Z,6.78
2019-04-22T11:16:05.544Z,6.30
2019-04-22T11:18:35.894Z,6.55
2019-04-22T11:21:07.462Z,8.00
2019-04-22T11:23:38.669Z,7.83
2019-04-22T11:26:10.110Z,5.05
2019-04-22T11:28:41.407Z,5.85
2019-04-22T11:31:12.450Z,6.53
2019-04-22T11:33:42.918Z,5.80
2019-04-22T11:36:15.789Z,6.03
2019-04-22T11:38:53.000Z,5.10
2019-04-22T11:41:19.356Z,7.20
2019-04-22T11:43:49.638Z,8.33
2019-04-22T11:46:21.013Z,6.07
2019-04-22T11:48:51.891Z,4.85
2019-04-22T11:51:22.233Z,5.83
2019-04-22T11:53:52.680Z,6.42
2019-04-22T11:56:23.021Z,5.50
2019-04-22T11:58:53.360Z,5.62
2019-04-22T12:01:24.654Z,7.85
2019-04-22T12:03:55.802Z,6.45
2019-04-22T12:06:26.345Z,5.30
2019-04-22T12:08:57.536Z,7.17
2019-04-22T12:11:28.277Z,6.07
2019-04-22T12:14:00.010Z,6.95
2019-04-22T12:16:31.682Z,5.80
2019-04-22T12:19:03.133Z,9.20
2019-04-22T12:21:35.200Z,8.50
2019-04-22T12:24:05.591Z,5.60
2019-04-22T12:26:35.922Z,4.90
2019-04-22T12:29:07.172Z,5.42
2019-04-22T12:31:37.672Z,5.85
2019-04-22T12:34:08.032Z,7.37
2019-04-22T12:36:38.492Z,7.03
2019-04-22T12:39:09.737Z,5.10
2019-04-22T12:41:40.211Z,4.33
2019-04-22T12:44:11.707Z,5.62
2019-04-22T12:46:42.107Z,4.00
2019-04-22T12:49:12.286Z,4.45
2019-04-22T12:51:45.376Z,4.78
2019-04-22T12:54:17.026Z,5.83
2019-04-22T12:56:48.011Z,5.33
2019-04-22T12:59:19.360Z,4.05
2019-04-22T13:01:50.998Z,5.53
2019-04-22T13:04:23.254Z,4.78
2019-04-22T13:06:53.653Z,3.83
2019-04-22T13:09:25.143Z,5.67
2019-04-22T13:11:57.073Z,8.40
2019-04-22T13:14:27.469Z,6.15
2019-04-22T13:16:57.841Z,6.35
2019-04-22T13:19:28.412Z,4.83
2019-04-22T13:22:00.917Z,4.92
2019-04-22T13:24:32.058Z,5.42
2019-04-22T13:27:06.574Z,6.40
2019-04-22T13:29:37.204Z,8.05
2019-04-22T13:32:08.822Z,3.77
2019-04-22T13:34:45.845Z,4.67
2019-04-22T13:37:12.740Z,4.80
2019-04-22T13:39:43.255Z,8.40
2019-04-22T13:42:19.056Z,5.85
2019-04-22T13:44:46.163Z,4.62
2019-04-22T13:47:35.071Z,4.90
2019-04-22T13:50:25.973Z,4.97
2019-04-22T13:53:12.244Z,4.95
2019-04-22T13:55:16.571Z,4.22
2019-04-22T13:57:42.623Z,3.45
2019-04-22T13:59:58.824Z,3.30
2019-04-22T14:02:46.476Z,3.60
2019-04-22T14:05:19.018Z,5.60
2019-04-22T14:07:52.058Z,3.33
2019-04-22T14:10:22.809Z,2.70
2019-04-22T14:12:53.110Z,5.90
2019-04-22T14:15:24.322Z,3.33
2019-04-22T14:17:54.676Z,4.03
2019-04-22T14:20:29.173Z,2.90
2019-04-22T14:22:58.763Z,6.00
2019-04-22T14:25:30.379Z,4.12
2019-04-22T14:28:06.116Z,3.17
2019-04-22T14:30:32.784Z,3.35
2019-04-22T14:33:04.813Z,2.77
2019-04-22T14:35:35.475Z,3.17
2019-04-22T14:38:06.436Z,2.42
2019-04-22T14:40:38.643Z,4.03
2019-04-22T14:43:28.987Z,4.58
2019-04-22T14:46:17.865Z,3.10
2019-04-22T14:48:45.034Z,3.27
2019-04-22T14:51:06.280Z,3.20
2019-04-22T14:53:40.097Z,5.85
2019-04-22T14:55:52.674Z,2.72
2019-04-22T14:58:22.920Z,3.52
2019-04-22T15:00:54.778Z,2.35
2019-04-22T15:03:25.943Z,3.00
2019-04-22T15:05:56.261Z,3.83
2019-04-22T15:08:28.951Z,3.92
2019-04-22T15:11:00.183Z,5.10
2019-04-22T15:13:31.614Z,3.72
2019-04-22T15:16:23.884Z,2.42
2019-04-22T15:19:20.148Z,2.67
2019-04-22T15:21:50.477Z,3.30
2019-04-22T15:24:25.077Z,3.95
2019-04-22T15:26:58.568Z,2.33
2019-04-22T15:29:29.624Z,3.20
2019-04-22T15:32:00.092Z,2.50
2019-04-22T15:34:30.569Z,4.20
2019-04-22T15:37:02.167Z,3.37
2019-04-22T15:39:33.909Z,1.95
2019-04-22T15:42:11.674Z,2.83
2019-04-22T15:44:37.426Z,2.70
2019-04-22T15:47:09.095Z,3.35
2019-04-22T15:49:40.230Z,3.62
2019-04-22T15:52:10.562Z,2.27
2019-04-22T15:54:41.591Z,3.67
2019-04-22T15:57:12.846Z,4.83
2019-04-22T15:59:59.333Z,3.08
2019-04-22T16:02:16.028Z,3.15
2019-04-22T16:04:46.586Z,2.30
2019-04-22T16:07:17.126Z,3.45
2019-04-22T16:09:47.870Z,5.42
2019-04-22T16:12:27.196Z,3.08
2019-04-22T16:14:53.442Z,2.85
2019-04-22T16:17:22.472Z,4.53
2019-04-22T16:19:53.205Z,2.00
2019-04-22T16:22:25.582Z,4.15
2019-04-22T16:25:15.379Z,2.22
2019-04-22T16:27:45.545Z,3.15
2019-04-22T16:30:17.162Z,4.90
2019-04-22T16:32:47.613Z,3.17
2019-04-22T16:35:18.783Z,2.70
2019-04-22T16:37:50.613Z,2.80
2019-04-22T16:40:20.968Z,2.90
2019-04-22T16:42:56.909Z,2.80
2019-04-22T16:45:23.097Z,2.62
2019-04-22T16:47:53.693Z,2.85
2019-04-22T16:50:27.287Z,4.03
2019-04-22T16:52:57.944Z,3.25
2019-04-22T16:55:29.105Z,2.70
2019-04-22T16:58:00.971Z,3.75
2019-04-22T17:00:31.506Z,4.40
2019-04-22T17:03:24.653Z,2.80
2019-04-22T17:06:14.199Z,2.47
2019-04-22T17:08:44.756Z,3.42
2019-04-22T17:11:15.980Z,2.70
2019-04-22T17:13:48.027Z,2.50
2019-04-22T17:16:20.066Z,4.45
2019-04-22T17:18:52.110Z,3.17
2019-04-22T17:21:23.623Z,2.22
2019-04-22T17:23:54.038Z,3.50
2019-04-22T17:26:24.436Z,3.15
2019-04-22T17:28:55.532Z,2.08
2019-04-22T17:31:26.896Z,3.67
2019-04-22T17:33:57.293Z,3.67
2019-04-22T17:36:27.527Z,2.15
2019-04-22T17:39:15.832Z,3.52
2019-04-22T17:41:51.191Z,2.20
2019-04-22T17:44:38.131Z,3.70
2019-04-22T17:47:20.200Z,2.25
2019-04-22T17:50:00.180Z,2.87
2019-04-22T17:52:30.485Z,3.17
2019-04-22T17:54:56.223Z,2.50
2019-04-22T17:57:32.571Z,2.85
2019-04-22T18:00:06.985Z,2.50
2019-04-22T18:02:32.359Z,2.27
2019-04-22T18:04:56.274Z,1.85
2019-04-22T18:07:47.430Z,2.10
2019-04-22T18:12:53.881Z,3.22
2019-04-22T18:15:18.861Z,2.40
2019-04-22T18:17:55.583Z,2.80
2019-04-22T18:20:17.524Z,2.47
2019-04-22T18:22:49.042Z,4.12
2019-04-22T18:25:20.326Z,3.10
2019-04-22T18:28:09.335Z,5.70
2019-04-22T18:30:24.366Z,2.20
2019-04-22T18:33:07.530Z,2.27
2019-04-22T18:35:33.910Z,2.98
2019-04-22T18:38:27.144Z,2.77
2019-04-22T18:40:39.956Z,3.22
2019-04-22T18:43:17.028Z,2.10
2019-04-22T18:46:05.248Z,4.57
2019-04-22T18:48:08.921Z,2.25
2019-04-22T18:51:00.238Z,2.05
2019-04-22T18:53:54.098Z,2.08
2019-04-22T18:56:28.869Z,3.85
2019-04-22T18:58:47.539Z,3.53
2019-04-22T19:01:10.240Z,3.50
2019-04-22T19:03:51.745Z,2.07
2019-04-22T19:06:43.294Z,2.17
2019-04-22T19:09:14.100Z,3.37
2019-04-22T19:11:43.061Z,2.23
2019-04-22T19:14:10.699Z,2.07
2019-04-22T19:16:41.227Z,2.33
2019-04-22T19:21:43.404Z,2.50
2019-04-22T19:24:17.326Z,1.60
2019-04-22T19:26:57.764Z,2.70
2019-04-22T19:29:28.575Z,1.80
2019-04-22T19:31:57.328Z,1.67
2019-04-22T19:34:30.853Z,2.03
2019-04-22T19:36:57.281Z,3.23
2019-04-22T19:39:27.213Z,3.67
2019-04-22T19:42:15.055Z,4.13
2019-04-22T19:44:39.679Z,2.73
2019-04-22T19:47:25.163Z,3.53
2019-04-22T19:49:45.450Z,4.60
2019-04-22T19:52:18.873Z,2.93
2019-04-22T19:54:41.614Z,3.30
2019-04-22T19:57:11.614Z,2.07
2019-04-22T19:59:46.473Z,2.93
2019-04-22T20:02:38.933Z,4.47
2019-04-22T20:05:29.685Z,3.37
2019-04-22T20:08:07.332Z,3.83
2019-04-22T20:10:29.617Z,2.47
2019-04-22T20:13:03.268Z,5.27
2019-04-22T20:15:30.637Z,1.77
2019-04-22T20:20:46.550Z,2.50
2019-04-22T20:23:13.206Z,3.63
2019-04-22T20:25:41.079Z,3.83
2019-04-22T20:28:22.638Z,3.10
2019-04-22T20:30:51.154Z,2.90
2019-04-22T20:33:33.287Z,2.70
2019-04-22T20:35:57.021Z,1.90
2019-04-22T20:38:26.239Z,3.07
2019-04-22T20:40:55.289Z,2.73
2019-04-22T20:43:35.551Z,2.93
2019-04-22T20:46:05.980Z,2.70
2019-04-22T20:48:40.702Z,2.53
2019-04-22T20:51:09.933Z,2.00
2019-04-22T20:53:43.704Z,3.30
2019-04-22T20:56:12.759Z,1.70
2019-04-22T20:58:45.271Z,4.17
2019-04-22T21:01:06.688Z,5.90
2019-04-22T21:03:37.361Z,4.13
2019-04-22T21:06:14.958Z,2.43
2019-04-22T21:08:54.645Z,5.43
2019-04-22T21:11:19.437Z,4.57
2019-04-22T21:13:54.407Z,4.80
2019-04-22T21:16:27.038Z,2.93
2019-04-22T21:18:58.152Z,4.57
2019-04-22T21:21:31.725Z,2.67
2019-04-22T21:23:58.309Z,3.90
2019-04-22T21:26:33.555Z,4.50
2019-04-22T21:29:03.299Z,3.57
2019-04-22T21:31:43.493Z,2.57
2019-04-22T21:34:10.509Z,4.97
2019-04-22T21:36:50.772Z,4.17
2019-04-22T21:39:11.965Z,5.80
2019-04-22T21:41:49.455Z,4.13
2019-04-22T21:44:21.225Z,7.13
2019-04-22T21:46:57.917Z,2.30
2019-04-22T21:49:25.041Z,2.03
2019-04-22T21:52:13.553Z,4.10
2019-04-22T21:54:31.608Z,5.93
2019-04-22T21:57:24.160Z,4.27
2019-04-22T21:59:47.150Z,4.73
2019-04-22T22:02:39.212Z,2.17
2019-04-22T22:04:49.881Z,4.67
2019-04-22T22:07:13.296Z,5.47
2019-04-22T22:09:55.613Z,4.77
2019-04-22T22:12:33.707Z,4.13
2019-04-22T22:15:05.316Z,2.43
2019-04-22T22:17:32.607Z,3.43
2019-04-22T22:20:02.544Z,5.30
2019-04-22T22:25:11.091Z,2.83
2019-04-22T22:27:41.668Z,1.80
2019-04-22T22:32:47.786Z,4.30
2019-04-22T22:35:22.878Z,4.87
2019-04-22T22:37:50.347Z,4.60
2019-04-22T22:40:09.419Z,4.30
2019-04-22T22:42:38.947Z,7.60
2019-04-22T22:45:14.180Z,2.17
2019-04-22T22:48:07.701Z,5.63
2019-04-22T22:50:30.308Z,5.50
2019-04-22T22:55:33.416Z,3.00
2019-04-22T22:58:11.428Z,4.43
2019-04-22T23:00:35.337Z,2.20
2019-04-22T23:05:52.708Z,2.20
2019-04-22T23:08:22.753Z,3.23
2019-04-22T23:10:55.630Z,4.30
2019-04-22T23:13:26.045Z,2.43
2019-04-22T23:15:48.413Z,2.17
2019-04-22T23:18:03.797Z,3.73
2019-04-22T23:20:39.503Z,2.33
2019-04-22T23:23:26.827Z,2.40
2019-04-22T23:26:02.564Z,2.30
2019-04-22T23:29:00.076Z,3.00
2019-04-22T23:31:37.194Z,1.63
2019-04-22T23:34:14.651Z,3.60
2019-04-22T23:36:50.091Z,5.37
2019-04-22T23:39:34.933Z,2.83
2019-04-22T23:42:06.419Z,5.27
2019-04-22T23:44:31.940Z,3.03
2019-04-22T23:47:14.904Z,3.60
2019-04-22T23:49:53.272Z,3.20
2019-04-22T23:52:28.933Z,3.73
2019-04-22T23:55:06.890Z,3.67
2019-04-22T23:57:42.078Z,5.37
